Terminal Aerodrome Forecast
Issued by NWS

Home | Current Version | Previous Version | Text Only | Print | Product List | Glossary On
Versions: 1 2 3 4 5 6 7 8 9 10 11 12 13 14 15 16 17 18 19 20 21
000
FTUS41 KBGM 272300
TAFITH
TAF
KITH 272336Z 2800/2824 35006KT P6SM SCT030 BKN050
     FM280300 30004KT P6SM SCT150
     FM281000 29006KT P6SM OVC015
     FM281600 32010KT P6SM BKN035
     FM281900 32010KT P6SM SCT060=

USA.gov is the U.S. government's official web portal to all federal, state and local government web resources and services.